CPY5 weather

Wilson's Heliport
Toronto, Ontario, Canada

Public forecast

Using degrees Celsius for public forecast. Weather courtesy of forecast.io.

METAR (pilot weather report)

Closest report is Lester B. Pearson International Airport, 4.6 nm (8.5 km) NW. Retrieved 2019/04/22 09:00 UTC (1 hour ago):

CYYZ 220900Z 32002KT 15SM FEW120 FEW240 06/05 A3019 RMK AC1CI1 SLP228

TAF (pilot weather forecast)

Closest forecast is Lester B. Pearson International Airport, 4.6 nm (8.5 km) NW. Retrieved 2019/04/22 09:42 UTC (30 minutes ago):

TAF CYYZ 220839Z 2209/2312 32005KT P6SM FEW100 BECMG 2210/2212 02005KT FM221500 11006KT P6SM SCT120 FM222000 15007KT P6SM FEW140 BECMG 2301/2303 14003KT RMK NXT FCST BY 221200Z